الصفحة الرئيسية
METAR-TAF:

METAR-TAF

مطار :

أوكاياما, اليابان

دائرة عرض: 34-45N, خط طول: 133-51E, ارتفاع: 241 متر

مراقبة الطقس الحالي

تاريخ ووقت الإصدار 17 دقيقة قبل الساعة 03:00UTC
ريح 8 عقدة من الجنوب/الجنوب الغربي
درجة الحرارة 26°درجة مئوية
الرطوبة 74%
ضغط 1010 hPa
الرؤية 10 كم أو أكثر
غيوم قليلة على ارتفاع 2000 قدم
غيوم مفككة على ارتفاع 15000 قدم
غيوم مفككة على ارتفاع 17000 قدم
زخات في الجوار,

METAR: RJOB 250300Z 21008KT 9999 VCSH FEW020 BKN150 BKN170 26/21 Q1010

زمن: 12:17 (03:17 UTC)

توقعات

تاريخ ووقت الإصدار 4ساعات و 8 دقيقة قبل الساعة 23:09UTC
التوقعات صالحة من25 الساعة 00 UTC إلى 26 الساعة 06 UTC
ريح 7 عقدة من الجنوب/الجنوب الغربي
الرؤية 10 كم أو أكثر
غيوم قليلة على ارتفاع 1500 قدم
غيوم متفرقة على ارتفاع 2500 قدم
أصبح
من 25 الساعة 15 UTC إلى 25 الساعة 18 UTC
ريح 5 عقدة من الشرق
أصبح
من 25 الساعة 21 UTC إلى 26 الساعة 00 UTC
ريح 6 عقدة من الغرب/الجنوب الغربي

TAF: RJOB 242309Z 2500/2606 21007KT 9999 FEW015 SCT025 BECMG 2515/2518 08005KT BECMG 2521/2600 24006KT

أرصاد الطقس والتوقعات من أكثر من 4000 مطار (تقارير الطقس للمطار METAR والتنبؤ بالطقس بالمطارTAF).

المحطات المتاحة هي النقط الصفراء والحمراء على الخريطة.

حرك المؤشر فوق النقطة لمعرفة اسم المحطة.

ثم انقر لمعرفة أرصاد وتوقعات الطقس.

لتغيير الخارطة: اضغط على الأزرار الخضراء مع رمز الصليب الأسود للتكبير. على الزر الأخضر مع شرطة للتصغير، أو على الأسهم الخضراء للخرائط المجاورة.


METAR-TAF: